createdAt,value
2023-01-18T00:01:38.662Z,2.30
2023-01-18T00:04:40.283Z,2.23
2023-01-18T00:07:42.014Z,2.50
2023-01-18T00:10:43.704Z,2.50
2023-01-18T00:13:45.959Z,2.60
2023-01-18T00:16:47.568Z,2.43
2023-01-18T00:19:49.160Z,2.57
2023-01-18T00:22:51.119Z,2.20
2023-01-18T00:25:52.734Z,2.20
2023-01-18T00:28:55.860Z,2.47
2023-01-18T00:31:57.562Z,2.30
2023-01-18T00:35:00.398Z,2.67
2023-01-18T00:38:01.942Z,3.27
2023-01-18T00:41:03.748Z,2.17
2023-01-18T00:44:06.915Z,2.70
2023-01-18T00:47:08.452Z,2.93
2023-01-18T00:50:10.473Z,2.10
2023-01-18T00:53:12.101Z,2.30
2023-01-18T00:56:15.678Z,2.70
2023-01-18T00:59:17.305Z,2.50
2023-01-18T01:02:18.883Z,2.40
2023-01-18T01:05:40.343Z,2.13
2023-01-18T01:08:50.464Z,3.70
2023-01-18T01:12:11.438Z,2.23
2023-01-18T01:15:31.479Z,2.37
2023-01-18T01:18:51.771Z,2.83
2023-01-18T01:22:12.002Z,2.40
2023-01-18T01:25:32.230Z,2.40
2023-01-18T01:28:41.088Z,2.40
2023-01-18T01:31:42.704Z,1.90
2023-01-18T01:34:44.434Z,1.70
2023-01-18T01:37:45.979Z,2.67
2023-01-18T01:40:55.530Z,2.00
2023-01-18T01:43:58.360Z,1.93
2023-01-18T01:47:05.121Z,2.20
2023-01-18T01:50:15.286Z,2.83
2023-01-18T01:53:16.958Z,2.50
2023-01-18T01:56:19.944Z,2.13
2023-01-18T01:59:21.897Z,2.50
2023-01-18T02:02:23.709Z,2.43
2023-01-18T02:05:25.581Z,2.00
2023-01-18T02:08:28.212Z,1.80
2023-01-18T02:11:29.823Z,2.27
2023-01-18T02:14:31.882Z,2.10
2023-01-18T02:17:49.615Z,2.10
2023-01-18T02:21:23.601Z,1.83
2023-01-18T02:24:40.396Z,1.90
2023-01-18T02:27:51.189Z,2.37
2023-01-18T02:30:52.858Z,2.27
2023-01-18T02:33:57.615Z,2.47
2023-01-18T02:37:11.532Z,2.03
2023-01-18T02:40:28.757Z,2.23
2023-01-18T02:43:50.439Z,1.80
2023-01-18T02:46:52.039Z,2.53
2023-01-18T02:49:53.632Z,2.83
2023-01-18T02:52:55.555Z,2.53
2023-01-18T02:56:06.553Z,2.60
2023-01-18T02:59:26.915Z,2.73
2023-01-18T03:02:28.697Z,2.53
2023-01-18T03:05:31.070Z,2.63
2023-01-18T03:08:35.657Z,2.80
2023-01-18T03:11:45.249Z,2.63
2023-01-18T03:14:52.789Z,2.73
2023-01-18T03:17:57.423Z,2.97
2023-01-18T03:20:59.011Z,2.50
2023-01-18T03:24:02.588Z,3.30
2023-01-18T03:27:22.905Z,2.60
2023-01-18T03:30:43.390Z,2.53
2023-01-18T03:33:50.242Z,3.20
2023-01-18T03:36:53.111Z,3.00
2023-01-18T03:39:56.757Z,2.80
2023-01-18T03:43:18.591Z,3.00
2023-01-18T03:46:21.547Z,3.00
2023-01-18T03:49:23.726Z,2.90
2023-01-18T03:52:29.098Z,2.53
2023-01-18T03:55:57.088Z,2.77
2023-01-18T03:59:00.847Z,2.30
2023-01-18T04:02:03.820Z,2.27
2023-01-18T04:05:05.761Z,2.40
2023-01-18T04:08:07.423Z,2.27
2023-01-18T04:11:09.083Z,2.47
2023-01-18T04:14:10.714Z,2.43
2023-01-18T04:17:12.377Z,3.87
2023-01-18T04:20:14.128Z,2.70
2023-01-18T04:23:15.890Z,2.67
2023-01-18T04:26:17.573Z,2.90
2023-01-18T04:29:19.158Z,2.67
2023-01-18T04:32:20.848Z,3.60
2023-01-18T04:35:22.441Z,3.10
2023-01-18T04:38:24.086Z,3.63
2023-01-18T04:41:25.798Z,3.17
2023-01-18T04:44:27.411Z,3.20
2023-01-18T04:47:31.869Z,3.20
2023-01-18T04:50:33.506Z,9.23
2023-01-18T04:53:35.151Z,6.43
2023-01-18T04:56:36.832Z,3.97
2023-01-18T04:59:39.354Z,7.80
2023-01-18T05:02:41.085Z,3.77
2023-01-18T05:05:42.768Z,3.13
2023-01-18T05:08:44.448Z,3.17
2023-01-18T05:11:46.001Z,2.73
2023-01-18T05:14:47.821Z,2.97
2023-01-18T05:17:53.070Z,2.90
2023-01-18T05:20:54.742Z,2.60
2023-01-18T05:23:56.426Z,3.10
2023-01-18T05:26:58.244Z,2.70
2023-01-18T05:29:59.925Z,3.33
2023-01-18T05:33:02.672Z,3.00
2023-01-18T05:36:04.571Z,3.53
2023-01-18T05:39:06.550Z,3.10
2023-01-18T05:42:08.550Z,3.50
2023-01-18T05:45:10.687Z,3.73
2023-01-18T05:48:12.598Z,3.40
2023-01-18T05:51:14.247Z,3.50
2023-01-18T05:54:15.900Z,3.00
2023-01-18T05:57:17.541Z,3.43
2023-01-18T06:00:19.377Z,3.50
2023-01-18T06:03:21.312Z,3.47
2023-01-18T06:06:22.948Z,3.93
2023-01-18T06:09:24.499Z,3.33
2023-01-18T06:12:26.189Z,3.23
2023-01-18T06:15:27.824Z,3.97
2023-01-18T06:18:31.220Z,3.07
2023-01-18T06:21:33.021Z,3.00
2023-01-18T06:24:34.715Z,2.40
2023-01-18T06:27:37.735Z,3.30
2023-01-18T06:30:39.448Z,4.03
2023-01-18T06:33:41.128Z,4.93
2023-01-18T06:36:45.134Z,4.40
2023-01-18T06:39:46.809Z,3.70
2023-01-18T06:42:48.868Z,6.20
2023-01-18T06:45:54.616Z,5.80
2023-01-18T06:48:56.352Z,4.23
2023-01-18T06:51:58.005Z,3.00
2023-01-18T06:54:59.691Z,3.73
2023-01-18T06:58:02.677Z,3.43
2023-01-18T07:01:08.152Z,3.23
2023-01-18T07:04:12.218Z,4.30
2023-01-18T07:07:14.264Z,4.00
2023-01-18T07:10:16.761Z,4.27
2023-01-18T07:13:19.016Z,3.10
2023-01-18T07:16:21.448Z,3.63
2023-01-18T07:19:23.226Z,3.57
2023-01-18T07:22:24.882Z,3.90
2023-01-18T07:25:27.698Z,4.00
2023-01-18T07:28:29.883Z,3.73
2023-01-18T07:31:31.994Z,4.63
2023-01-18T07:34:33.710Z,4.67
2023-01-18T07:37:36.134Z,3.80
2023-01-18T07:40:37.772Z,3.13
2023-01-18T07:43:39.591Z,3.80
2023-01-18T07:46:43.330Z,3.60
2023-01-18T07:49:44.974Z,3.80
2023-01-18T07:52:46.565Z,3.47
2023-01-18T07:55:48.652Z,3.53
2023-01-18T07:58:50.296Z,3.40
2023-01-18T08:01:51.904Z,10.37
2023-01-18T08:04:53.561Z,4.27
2023-01-18T08:07:55.458Z,2.90
2023-01-18T08:10:58.740Z,4.03
2023-01-18T08:14:00.785Z,3.60
2023-01-18T08:17:02.368Z,3.20
2023-01-18T08:20:05.780Z,3.73
2023-01-18T08:23:07.420Z,3.23
2023-01-18T08:26:10.601Z,2.97
2023-01-18T08:29:12.314Z,2.70
2023-01-18T08:32:14.054Z,3.23
2023-01-18T08:35:15.707Z,3.30
2023-01-18T08:38:17.284Z,4.27
2023-01-18T08:41:19.766Z,2.57
2023-01-18T08:44:21.465Z,3.73
2023-01-18T08:47:23.113Z,3.90
2023-01-18T08:50:25.232Z,4.60
2023-01-18T08:53:26.902Z,5.47
2023-01-18T08:56:28.774Z,2.83
2023-01-18T08:59:30.413Z,3.03
2023-01-18T09:02:32.860Z,3.10
2023-01-18T09:05:35.849Z,3.03
2023-01-18T09:08:37.572Z,3.80
2023-01-18T09:11:39.287Z,2.87
2023-01-18T09:14:41.035Z,3.50
2023-01-18T09:17:42.646Z,3.30
2023-01-18T09:20:44.476Z,2.73
2023-01-18T09:23:49.114Z,2.73
2023-01-18T09:26:51.423Z,3.40
2023-01-18T09:29:53.086Z,2.47
2023-01-18T09:32:54.736Z,2.73
2023-01-18T09:35:57.290Z,2.13
2023-01-18T09:38:58.904Z,2.67
2023-01-18T09:42:01.626Z,2.03
2023-01-18T09:45:03.789Z,2.60
2023-01-18T09:48:06.925Z,2.60
2023-01-18T09:51:37.959Z,2.00
2023-01-18T09:54:45.885Z,2.00
2023-01-18T09:57:59.045Z,2.80
2023-01-18T10:01:13.146Z,1.90
2023-01-18T10:04:20.855Z,1.97
2023-01-18T10:07:24.217Z,2.50
2023-01-18T10:10:26.236Z,2.37
2023-01-18T10:13:37.972Z,2.20
2023-01-18T10:16:39.630Z,2.50
2023-01-18T10:19:41.449Z,2.20
2023-01-18T10:22:46.118Z,2.93
2023-01-18T10:25:55.393Z,2.80
2023-01-18T10:29:02.247Z,2.17
2023-01-18T10:32:17.757Z,1.70
2023-01-18T10:35:39.563Z,2.23
2023-01-18T10:38:41.311Z,1.70
2023-01-18T10:41:43.341Z,2.27
2023-01-18T10:44:45.241Z,2.27
2023-01-18T10:47:51.105Z,1.40
2023-01-18T10:50:54.212Z,1.67
2023-01-18T10:53:56.352Z,1.87
2023-01-18T10:57:01.919Z,1.60
2023-01-18T11:00:12.476Z,1.50
2023-01-18T11:03:14.949Z,1.80
2023-01-18T11:06:17.285Z,2.30
2023-01-18T11:09:37.568Z,1.80
2023-01-18T11:12:43.467Z,1.57
2023-01-18T11:15:45.068Z,1.70
2023-01-18T11:18:59.606Z,1.67
2023-01-18T11:22:01.398Z,1.70
2023-01-18T11:25:03.631Z,2.00
2023-01-18T11:28:09.606Z,1.67
2023-01-18T11:31:13.200Z,1.67
2023-01-18T11:34:29.109Z,1.63
2023-01-18T11:37:32.704Z,1.60
2023-01-18T11:40:34.910Z,1.40
2023-01-18T11:43:37.946Z,1.67
2023-01-18T11:46:44.136Z,1.70
2023-01-18T11:49:49.444Z,1.23
2023-01-18T11:52:53.717Z,1.50
2023-01-18T11:56:02.118Z,2.03
2023-01-18T11:59:04.751Z,2.10
2023-01-18T12:02:06.425Z,2.90
2023-01-18T12:05:28.293Z,1.60
2023-01-18T12:08:40.394Z,2.47
2023-01-18T12:12:13.515Z,1.40
2023-01-18T12:15:20.790Z,1.70
2023-01-18T12:18:40.958Z,1.73
2023-01-18T12:22:04.356Z,2.17
2023-01-18T12:25:18.495Z,1.57
2023-01-18T12:28:38.879Z,1.80
2023-01-18T12:31:58.140Z,2.30
2023-01-18T12:35:24.611Z,1.70
2023-01-18T12:38:31.691Z,1.73
2023-01-18T12:41:40.732Z,1.43
2023-01-18T12:45:08.784Z,2.00
2023-01-18T12:48:20.141Z,1.70
2023-01-18T12:51:23.953Z,1.70
2023-01-18T12:54:27.996Z,2.07
2023-01-18T12:57:29.982Z,1.87
2023-01-18T13:00:38.646Z,1.60
2023-01-18T13:03:45.203Z,1.23
2023-01-18T13:06:49.244Z,1.27
2023-01-18T13:09:51.147Z,1.80
2023-01-18T13:12:54.097Z,1.73
2023-01-18T13:15:55.707Z,1.90
2023-01-18T13:19:00.863Z,1.93
2023-01-18T13:22:19.741Z,1.83
2023-01-18T13:25:26.347Z,2.10
2023-01-18T13:28:28.108Z,3.07
2023-01-18T13:31:30.786Z,2.67
2023-01-18T13:34:47.660Z,2.47
2023-01-18T13:37:49.838Z,2.67
2023-01-18T13:40:56.465Z,3.00
2023-01-18T13:44:02.074Z,3.00
2023-01-18T13:47:23.616Z,3.90
2023-01-18T13:50:28.376Z,3.00
2023-01-18T13:53:46.721Z,2.93
2023-01-18T13:57:09.544Z,3.50
2023-01-18T14:00:21.556Z,3.27
2023-01-18T14:03:28.137Z,3.23
2023-01-18T14:06:35.785Z,2.90
2023-01-18T14:09:40.126Z,3.30
2023-01-18T14:12:55.563Z,3.07
2023-01-18T14:16:00.207Z,3.47
2023-01-18T14:19:17.198Z,4.03
2023-01-18T14:22:27.751Z,3.63
2023-01-18T14:25:39.261Z,2.90
2023-01-18T14:28:40.849Z,4.60
2023-01-18T14:32:00.916Z,8.33
2023-01-18T14:35:04.378Z,5.70
2023-01-18T14:38:17.139Z,6.20
2023-01-18T14:41:19.765Z,12.27
2023-01-18T14:44:22.550Z,10.30
2023-01-18T14:47:26.265Z,9.40
2023-01-18T14:50:32.559Z,4.90
2023-01-18T14:53:48.014Z,3.57
2023-01-18T14:56:49.683Z,4.50
2023-01-18T14:59:52.809Z,4.00
2023-01-18T15:02:54.503Z,3.70
2023-01-18T15:05:58.949Z,5.37
2023-01-18T15:09:01.409Z,4.07
2023-01-18T15:12:05.501Z,5.00
2023-01-18T15:15:09.013Z,3.17
2023-01-18T15:18:20.929Z,3.20
2023-01-18T15:21:24.467Z,3.40
2023-01-18T15:24:26.129Z,4.20
2023-01-18T15:27:33.974Z,4.33
2023-01-18T15:30:35.656Z,5.10
2023-01-18T15:33:37.706Z,5.03
2023-01-18T15:36:39.390Z,4.67
2023-01-18T15:39:51.118Z,5.20
2023-01-18T15:43:09.677Z,6.30
2023-01-18T15:46:13.051Z,5.00
2023-01-18T15:49:15.361Z,4.27
2023-01-18T15:52:33.789Z,6.23
2023-01-18T15:55:47.249Z,4.83
2023-01-18T15:58:51.229Z,5.80
2023-01-18T16:02:15.089Z,12.53
2023-01-18T16:05:21.611Z,6.87
2023-01-18T16:08:23.873Z,6.20
2023-01-18T16:11:26.560Z,7.00
2023-01-18T16:14:28.233Z,8.83
2023-01-18T16:17:31.962Z,11.90
2023-01-18T16:20:35.127Z,7.03
2023-01-18T16:23:36.829Z,11.70
2023-01-18T16:26:40.546Z,8.30
2023-01-18T16:29:44.844Z,6.67
2023-01-18T16:32:50.069Z,8.93
2023-01-18T16:35:51.858Z,7.50
2023-01-18T16:38:53.490Z,7.20
2023-01-18T16:41:57.285Z,7.27
2023-01-18T16:44:59.311Z,6.57
2023-01-18T16:48:01.521Z,10.73
2023-01-18T16:51:04.671Z,7.83
2023-01-18T16:54:06.835Z,9.00
2023-01-18T16:57:15.205Z,11.17
2023-01-18T17:00:18.129Z,10.70
2023-01-18T17:03:19.793Z,8.73
2023-01-18T17:06:23.028Z,8.87
2023-01-18T17:09:25.974Z,9.20
2023-01-18T17:12:27.602Z,11.97
2023-01-18T17:15:30.825Z,12.40
2023-01-18T17:18:32.494Z,9.33
2023-01-18T17:21:34.795Z,11.40
2023-01-18T17:24:36.731Z,11.33
2023-01-18T17:27:38.539Z,9.83
2023-01-18T17:30:41.544Z,9.73
2023-01-18T17:33:43.917Z,10.83
2023-01-18T17:36:45.985Z,9.50
2023-01-18T17:40:02.449Z,8.87
2023-01-18T17:43:04.862Z,9.40
2023-01-18T17:46:10.754Z,11.60
2023-01-18T17:49:12.416Z,9.60
2023-01-18T17:52:14.082Z,12.17
2023-01-18T17:55:17.872Z,10.47
2023-01-18T17:58:21.202Z,11.73
2023-01-18T18:01:26.438Z,9.73
2023-01-18T18:04:29.776Z,8.90
2023-01-18T18:07:31.429Z,10.83
2023-01-18T18:10:33.024Z,11.83
2023-01-18T18:13:34.608Z,16.97
2023-01-18T18:16:42.754Z,15.47
2023-01-18T18:19:44.999Z,20.57
2023-01-18T18:22:46.702Z,15.20
2023-01-18T18:25:48.806Z,15.97
2023-01-18T18:28:50.436Z,10.93
2023-01-18T18:31:52.363Z,10.63
2023-01-18T18:34:54.185Z,14.33
2023-01-18T18:37:57.125Z,12.33
2023-01-18T18:41:05.720Z,11.13
2023-01-18T18:44:07.373Z,13.20
2023-01-18T18:47:10.079Z,13.67
2023-01-18T18:50:11.762Z,11.70
2023-01-18T18:53:14.112Z,14.07
2023-01-18T18:56:15.708Z,10.60
2023-01-18T18:59:17.371Z,14.63
2023-01-18T19:02:19.427Z,14.30
2023-01-18T19:05:21.132Z,13.80
2023-01-18T19:08:23.815Z,11.13
2023-01-18T19:11:25.439Z,10.60
2023-01-18T19:14:27.162Z,11.53
2023-01-18T19:17:31.436Z,8.63
2023-01-18T19:20:33.475Z,8.47
2023-01-18T19:23:35.340Z,8.50
2023-01-18T19:26:37.087Z,9.10
2023-01-18T19:29:39.375Z,9.57
2023-01-18T19:32:41.145Z,10.03
2023-01-18T19:35:44.789Z,10.33
2023-01-18T19:38:50.695Z,11.13
2023-01-18T19:41:54.364Z,11.73
2023-01-18T19:44:59.230Z,9.80
2023-01-18T19:48:01.844Z,8.77
2023-01-18T19:51:12.942Z,9.20
2023-01-18T19:54:23.324Z,10.73
2023-01-18T19:57:26.412Z,9.07
2023-01-18T20:00:29.054Z,9.13
2023-01-18T20:03:30.643Z,9.60
2023-01-18T20:06:32.882Z,9.13
2023-01-18T20:09:42.833Z,8.53
2023-01-18T20:12:45.119Z,7.73
2023-01-18T20:15:50.693Z,8.97
2023-01-18T20:18:53.052Z,10.10
2023-01-18T20:21:54.871Z,10.13
2023-01-18T20:24:56.516Z,10.17
2023-01-18T20:27:58.150Z,10.00
2023-01-18T20:31:02.892Z,10.57
2023-01-18T20:34:04.983Z,7.93
2023-01-18T20:37:06.698Z,11.47
2023-01-18T20:40:08.742Z,7.37
2023-01-18T20:43:10.360Z,11.33
2023-01-18T20:46:12.274Z,8.60
2023-01-18T20:49:14.086Z,9.37
2023-01-18T20:52:15.801Z,7.93
2023-01-18T20:55:18.847Z,9.17
2023-01-18T20:58:21.505Z,7.63
2023-01-18T21:01:23.218Z,8.93
2023-01-18T21:04:25.463Z,7.63
2023-01-18T21:07:28.451Z,7.60
2023-01-18T21:10:38.636Z,8.53
2023-01-18T21:13:40.459Z,7.47
2023-01-18T21:16:42.663Z,7.77
2023-01-18T21:19:46.090Z,7.83
2023-01-18T21:22:47.822Z,8.57
2023-01-18T21:25:50.316Z,7.20
2023-01-18T21:28:51.973Z,6.67
2023-01-18T21:31:53.634Z,7.63
2023-01-18T21:34:55.610Z,7.80
2023-01-18T21:37:59.745Z,7.30
2023-01-18T21:41:21.539Z,8.83
2023-01-18T21:44:41.939Z,8.37
2023-01-18T21:47:43.618Z,6.47
2023-01-18T21:51:03.679Z,7.90
2023-01-18T21:54:17.221Z,6.70
2023-01-18T21:57:19.736Z,5.73
2023-01-18T22:00:21.516Z,7.27
2023-01-18T22:03:23.152Z,7.90
2023-01-18T22:06:24.748Z,7.37
2023-01-18T22:09:27.248Z,6.93
2023-01-18T22:12:28.911Z,7.57
2023-01-18T22:15:30.472Z,6.93
2023-01-18T22:18:32.148Z,6.33
2023-01-18T22:21:34.107Z,5.50
2023-01-18T22:24:35.763Z,5.97
2023-01-18T22:27:37.414Z,6.60
2023-01-18T22:30:39.249Z,7.30
2023-01-18T22:33:40.970Z,6.77
2023-01-18T22:36:42.624Z,6.17
2023-01-18T22:39:44.325Z,6.30
2023-01-18T22:42:45.933Z,7.40
2023-01-18T22:45:54.220Z,9.47
2023-01-18T22:48:55.868Z,9.50
2023-01-18T22:51:57.583Z,12.10
2023-01-18T22:54:59.252Z,9.77
2023-01-18T22:58:01.345Z,8.50
2023-01-18T23:01:03.595Z,7.27
2023-01-18T23:04:05.330Z,7.27
2023-01-18T23:07:07.090Z,7.53
2023-01-18T23:10:09.248Z,7.77
2023-01-18T23:13:11.036Z,7.00
2023-01-18T23:16:32.841Z,7.27
2023-01-18T23:19:34.608Z,7.97
2023-01-18T23:22:36.598Z,7.97
2023-01-18T23:25:38.188Z,8.50
2023-01-18T23:28:42.727Z,7.20
2023-01-18T23:31:44.460Z,7.17
2023-01-18T23:34:47.870Z,7.63
2023-01-18T23:37:49.515Z,6.27
2023-01-18T23:41:09.709Z,7.20
2023-01-18T23:44:29.922Z,7.53
2023-01-18T23:47:50.298Z,7.57
2023-01-18T23:51:10.646Z,8.30
2023-01-18T23:54:18.652Z,8.83
2023-01-18T23:57:20.227Z,9.30
